Aérodrome :
LOGIN :

S'inscrire | Disclaimer

   EN    FR    IT 

 










Légende :    VFR   VFR Marginal   IFR   IFR Intensif   IFR Très Intensif
Visi : 
Plafond : 
>= 8 km
>= 3000ft
5 à 8 km
1000 à 3000 ft
1500m à 5 km
500 à 1000 ft
800 à 1500m
200 à 500 ft
< 800m
< 200 ft
Symboles :   Orages  Brouillard  Fortes neiges  Fortes précipitations  Vent > 20 kt
SIGMETs :   Divers  Orages  Givrage  Turbulence  Onde Orograph.  Cendres Volcan.






- Altitude de l'aérodrome : 1036 ft
- Code IATA : ERF


EDDE - Erfurt

DERNIER METAR :
  • 171220Z 21015KT 9999 FEW026 07/01 Q1014 TEMPO 21020G30KT

METARs EXPIRÉS :
  • 171150Z 21018KT 9999 FEW026 08/M00 Q1014 TEMPO 21020G30KT
  • 171120Z 21012KT 180V240 9999 FEW033 09/02 Q1015 NOSIG
  • 171050Z 22009KT 9999 FEW032 08/02 Q1015 NOSIG
  • 171020Z 22012KT 9999 FEW030 08/02 Q1015 NOSIG
  • 170950Z 21012KT 9999 FEW023 08/02 Q1015 NOSIG

TAF TAF EDDE
Valide du 17 à 12h jusqu'au 18 à 12h UTC


171100Z 1712/1812 23012KT 9999 FEW035
BECMG 1712/1716 23015G30KT
BECMG 1806/1810 25020G35KT



MET'MAP, la Météo Aéronautique d'un coup d'oeil ! - Copyright ORBIFLY Décembre 2007 - Disclaimer

ORBIFLY MET'MAP TEAM :

Programmation & Développement : Alexandra Zaïnal
Sur une idée originale de : Baudouin d'Aumeries
Assistance à la programmation : Marc-Olivier Méhu
Soutien technique & logistique : Manuel Goepfert

Contact : metmap@orbifly.com




SOURCES & CREDITS :

   NOAA